Aviation Digital Data Service (ADDS)

Output produced by METARs form (0922 UTC 19 April 2019)
found at http://www.aviationweather.gov/metar/data/
 
METAR text: EDDV 190850Z 09008KT CAVOK 17/05 Q1032 NOSIG
Conditions at: EDDV (HANNOVER , DE) observed 0850 UTC 19 April 2019
Temperature: 17.0°C (63°F)
Dewpoint: 5.0°C (41°F) [RH = 45%]
Pressure (altimeter): 30.47 inches Hg (1032.0 mb)
Winds: from the E (90 degrees) at 9 MPH (8 knots; 4.1 m/s)
Visibility: 6 or more miles (10+ km)
Ceiling: ceiling and visibility are OK
Clouds: unknown
Weather: no significant weather observed at this time

METAR text: EDDV 190820Z 09010KT CAVOK 16/04 Q1032 NOSIG
Conditions at: EDDV (HANNOVER , DE) observed 0820 UTC 19 April 2019
Temperature: 16.0°C (61°F)
Dewpoint: 4.0°C (39°F) [RH = 45%]
Pressure (altimeter): 30.47 inches Hg (1032.0 mb)
Winds: from the E (90 degrees) at 12 MPH (10 knots; 5.1 m/s)
Visibility: 6 or more miles (10+ km)
Ceiling: ceiling and visibility are OK
Clouds: unknown
Weather: no significant weather observed at this time

METAR text: EDDV 190750Z 09009KT CAVOK 14/04 Q1032 NOSIG
Conditions at: EDDV (HANNOVER , DE) observed 0750 UTC 19 April 2019
Temperature: 14.0°C (57°F)
Dewpoint: 4.0°C (39°F) [RH = 51%]
Pressure (altimeter): 30.47 inches Hg (1032.0 mb)
Winds: from the E (90 degrees) at 10 MPH (9 knots; 4.6 m/s)
Visibility: 6 or more miles (10+ km)
Ceiling: ceiling and visibility are OK
Clouds: unknown
Weather: no significant weather observed at this time

METAR text: EDDV 190720Z 08008KT CAVOK 13/04 Q1032 NOSIG
Conditions at: EDDV (HANNOVER , DE) observed 0720 UTC 19 April 2019
Temperature: 13.0°C (55°F)
Dewpoint: 4.0°C (39°F) [RH = 54%]
Pressure (altimeter): 30.47 inches Hg (1032.0 mb)
Winds: from the E (80 degrees) at 9 MPH (8 knots; 4.1 m/s)
Visibility: 6 or more miles (10+ km)
Ceiling: ceiling and visibility are OK
Clouds: unknown
Weather: no significant weather observed at this time

METAR text: EDDV 190650Z 09009KT CAVOK 11/03 Q1032 NOSIG
Conditions at: EDDV (HANNOVER , DE) observed 0650 UTC 19 April 2019
Temperature: 11.0°C (52°F)
Dewpoint: 3.0°C (37°F) [RH = 58%]
Pressure (altimeter): 30.47 inches Hg (1032.0 mb)
Winds: from the E (90 degrees) at 10 MPH (9 knots; 4.6 m/s)
Visibility: 6 or more miles (10+ km)
Ceiling: ceiling and visibility are OK
Clouds: unknown
Weather: no significant weather observed at this time

METAR text: EDDV 190620Z 10006KT CAVOK 10/03 Q1032 NOSIG
Conditions at: EDDV (HANNOVER , DE) observed 0620 UTC 19 April 2019
Temperature: 10.0°C (50°F)
Dewpoint: 3.0°C (37°F) [RH = 62%]
Pressure (altimeter): 30.47 inches Hg (1032.0 mb)
Winds: from the E (100 degrees) at 7 MPH (6 knots; 3.1 m/s)
Visibility: 6 or more miles (10+ km)
Ceiling: ceiling and visibility are OK
Clouds: unknown
Weather: no significant weather observed at this time

METAR text: EDDV 190550Z 09005KT CAVOK 09/03 Q1031 NOSIG
Conditions at: EDDV (HANNOVER , DE) observed 0550 UTC 19 April 2019
Temperature: 9.0°C (48°F)
Dewpoint: 3.0°C (37°F) [RH = 66%]
Pressure (altimeter): 30.44 inches Hg (1031.0 mb)
Winds: from the E (90 degrees) at 6 MPH (5 knots; 2.6 m/s)
Visibility: 6 or more miles (10+ km)
Ceiling: ceiling and visibility are OK
Clouds: unknown
Weather: no significant weather observed at this time

METAR text: EDDV 190520Z 07003KT CAVOK 08/02 Q1031 NOSIG
Conditions at: EDDV (HANNOVER , DE) observed 0520 UTC 19 April 2019
Temperature: 8.0°C (46°F)
Dewpoint: 2.0°C (36°F) [RH = 66%]
Pressure (altimeter): 30.44 inches Hg (1031.0 mb)
Winds: from the ENE (70 degrees) at 3 MPH (3 knots; 1.5 m/s)
Visibility: 6 or more miles (10+ km)
Ceiling: ceiling and visibility are OK
Clouds: unknown
Weather: no significant weather observed at this time

METAR text: EDDV 190450Z VRB01KT CAVOK 07/01 Q1031 NOSIG
Conditions at: EDDV (HANNOVER , DE) observed 0450 UTC 19 April 2019
Temperature: 7.0°C (45°F)
Dewpoint: 1.0°C (34°F) [RH = 66%]
Pressure (altimeter): 30.44 inches Hg (1031.0 mb)
Winds: variable direction winds at 1 MPH (1 knots; 0.5 m/s)
Visibility: 6 or more miles (10+ km)
Ceiling: ceiling and visibility are OK
Clouds: unknown
Weather: no significant weather observed at this time

METAR text: EDDV 190420Z 09003KT CAVOK 07/01 Q1031 NOSIG
Conditions at: EDDV (HANNOVER , DE) observed 0420 UTC 19 April 2019
Temperature: 7.0°C (45°F)
Dewpoint: 1.0°C (34°F) [RH = 66%]
Pressure (altimeter): 30.44 inches Hg (1031.0 mb)
Winds: from the E (90 degrees) at 3 MPH (3 knots; 1.5 m/s)
Visibility: 6 or more miles (10+ km)
Ceiling: ceiling and visibility are OK
Clouds: unknown
Weather: no significant weather observed at this time

METAR text: EDDV 190350Z 09003KT CAVOK 07/01 Q1031 NOSIG
Conditions at: EDDV (HANNOVER , DE) observed 0350 UTC 19 April 2019
Temperature: 7.0°C (45°F)
Dewpoint: 1.0°C (34°F) [RH = 66%]
Pressure (altimeter): 30.44 inches Hg (1031.0 mb)
Winds: from the E (90 degrees) at 3 MPH (3 knots; 1.5 m/s)
Visibility: 6 or more miles (10+ km)
Ceiling: ceiling and visibility are OK
Clouds: unknown
Weather: no significant weather observed at this time

METAR text: EDDV 190320Z 08003KT CAVOK 07/01 Q1031 NOSIG
Conditions at: EDDV (HANNOVER , DE) observed 0320 UTC 19 April 2019
Temperature: 7.0°C (45°F)
Dewpoint: 1.0°C (34°F) [RH = 66%]
Pressure (altimeter): 30.44 inches Hg (1031.0 mb)
Winds: from the E (80 degrees) at 3 MPH (3 knots; 1.5 m/s)
Visibility: 6 or more miles (10+ km)
Ceiling: ceiling and visibility are OK
Clouds: unknown
Weather: no significant weather observed at this time

METAR text: EDDV 190250Z 10004KT CAVOK 08/01 Q1030 NOSIG
Conditions at: EDDV (HANNOVER , DE) observed 0250 UTC 19 April 2019
Temperature: 8.0°C (46°F)
Dewpoint: 1.0°C (34°F) [RH = 61%]
Pressure (altimeter): 30.41 inches Hg (1030.0 mb)
Winds: from the E (100 degrees) at 5 MPH (4 knots; 2.1 m/s)
Visibility: 6 or more miles (10+ km)
Ceiling: ceiling and visibility are OK
Clouds: unknown
Weather: no significant weather observed at this time

METAR text: EDDV 190220Z VRB02KT CAVOK 08/02 Q1030 NOSIG
Conditions at: EDDV (HANNOVER , DE) observed 0220 UTC 19 April 2019
Temperature: 8.0°C (46°F)
Dewpoint: 2.0°C (36°F) [RH = 66%]
Pressure (altimeter): 30.41 inches Hg (1030.0 mb)
Winds: variable direction winds at 2 MPH (2 knots; 1.0 m/s)
Visibility: 6 or more miles (10+ km)
Ceiling: ceiling and visibility are OK
Clouds: unknown
Weather: no significant weather observed at this time

METAR text: EDDV 190150Z 08009KT CAVOK 09/02 Q1030 NOSIG
Conditions at: EDDV (HANNOVER , DE) observed 0150 UTC 19 April 2019
Temperature: 9.0°C (48°F)
Dewpoint: 2.0°C (36°F) [RH = 61%]
Pressure (altimeter): 30.41 inches Hg (1030.0 mb)
Winds: from the E (80 degrees) at 10 MPH (9 knots; 4.6 m/s)
Visibility: 6 or more miles (10+ km)
Ceiling: ceiling and visibility are OK
Clouds: unknown
Weather: no significant weather observed at this time

METAR text: EDDV 190120Z 08007KT CAVOK 09/02 Q1030 NOSIG
Conditions at: EDDV (HANNOVER , DE) observed 0120 UTC 19 April 2019
Temperature: 9.0°C (48°F)
Dewpoint: 2.0°C (36°F) [RH = 61%]
Pressure (altimeter): 30.41 inches Hg (1030.0 mb)
Winds: from the E (80 degrees) at 8 MPH (7 knots; 3.6 m/s)
Visibility: 6 or more miles (10+ km)
Ceiling: ceiling and visibility are OK
Clouds: unknown
Weather: no significant weather observed at this time

METAR text: EDDV 190050Z 09007KT CAVOK 09/02 Q1030 NOSIG
Conditions at: EDDV (HANNOVER , DE) observed 0050 UTC 19 April 2019
Temperature: 9.0°C (48°F)
Dewpoint: 2.0°C (36°F) [RH = 61%]
Pressure (altimeter): 30.41 inches Hg (1030.0 mb)
Winds: from the E (90 degrees) at 8 MPH (7 knots; 3.6 m/s)
Visibility: 6 or more miles (10+ km)
Ceiling: ceiling and visibility are OK
Clouds: unknown
Weather: no significant weather observed at this time

METAR text: EDDV 190020Z 08007KT CAVOK 10/02 Q1030 NOSIG
Conditions at: EDDV (HANNOVER , DE) observed 0020 UTC 19 April 2019
Temperature: 10.0°C (50°F)
Dewpoint: 2.0°C (36°F) [RH = 57%]
Pressure (altimeter): 30.41 inches Hg (1030.0 mb)
Winds: from the E (80 degrees) at 8 MPH (7 knots; 3.6 m/s)
Visibility: 6 or more miles (10+ km)
Ceiling: ceiling and visibility are OK
Clouds: unknown
Weather: no significant weather observed at this time

METAR text: EDDV 182350Z 08007KT CAVOK 10/02 Q1030 NOSIG
Conditions at: EDDV (HANNOVER , DE) observed 2350 UTC 18 April 2019
Temperature: 10.0°C (50°F)
Dewpoint: 2.0°C (36°F) [RH = 57%]
Pressure (altimeter): 30.41 inches Hg (1030.0 mb)
Winds: from the E (80 degrees) at 8 MPH (7 knots; 3.6 m/s)
Visibility: 6 or more miles (10+ km)
Ceiling: ceiling and visibility are OK
Clouds: unknown
Weather: no significant weather observed at this time

METAR text: EDDV 182320Z 08010KT CAVOK 11/02 Q1030 NOSIG
Conditions at: EDDV (HANNOVER , DE) observed 2320 UTC 18 April 2019
Temperature: 11.0°C (52°F)
Dewpoint: 2.0°C (36°F) [RH = 54%]
Pressure (altimeter): 30.41 inches Hg (1030.0 mb)
Winds: from the E (80 degrees) at 12 MPH (10 knots; 5.1 m/s)
Visibility: 6 or more miles (10+ km)
Ceiling: ceiling and visibility are OK
Clouds: unknown
Weather: no significant weather observed at this time

METAR text: EDDV 182250Z AUTO 07010KT //// R09L/P2000N R09R/P2000N // ///////// 12/02 Q1030 NOSIG
Conditions at: EDDV (HANNOVER , DE) observed 2250 UTC 18 April 2019
Temperature: 12.0°C (54°F)
Dewpoint: 2.0°C (36°F) [RH = 50%]
Pressure (altimeter): 30.41 inches Hg (1030.0 mb)
Winds: from the ENE (70 degrees) at 12 MPH (10 knots; 5.1 m/s)
Visibility: 1.24 miles (2.00 km)
Ceiling: unknown
Clouds: missing
Weather: no significant weather observed at this time

METAR text: EDDV 182220Z 07011KT CAVOK 12/02 Q1030 NOSIG
Conditions at: EDDV (HANNOVER , DE) observed 2220 UTC 18 April 2019
Temperature: 12.0°C (54°F)
Dewpoint: 2.0°C (36°F) [RH = 50%]
Pressure (altimeter): 30.41 inches Hg (1030.0 mb)
Winds: from the ENE (70 degrees) at 13 MPH (11 knots; 5.7 m/s)
Visibility: 6 or more miles (10+ km)
Ceiling: ceiling and visibility are OK
Clouds: unknown
Weather: no significant weather observed at this time

METAR text: EDDV 182150Z 07010KT CAVOK 12/02 Q1029 NOSIG
Conditions at: EDDV (HANNOVER , DE) observed 2150 UTC 18 April 2019
Temperature: 12.0°C (54°F)
Dewpoint: 2.0°C (36°F) [RH = 50%]
Pressure (altimeter): 30.38 inches Hg (1029.0 mb)
Winds: from the ENE (70 degrees) at 12 MPH (10 knots; 5.1 m/s)
Visibility: 6 or more miles (10+ km)
Ceiling: ceiling and visibility are OK
Clouds: unknown
Weather: no significant weather observed at this time

METAR text: EDDV 182120Z 07007KT CAVOK 10/01 Q1029 NOSIG
Conditions at: EDDV (HANNOVER , DE) observed 2120 UTC 18 April 2019
Temperature: 10.0°C (50°F)
Dewpoint: 1.0°C (34°F) [RH = 53%]
Pressure (altimeter): 30.38 inches Hg (1029.0 mb)
Winds: from the ENE (70 degrees) at 8 MPH (7 knots; 3.6 m/s)
Visibility: 6 or more miles (10+ km)
Ceiling: ceiling and visibility are OK
Clouds: unknown
Weather: no significant weather observed at this time

METAR text: EDDV 182050Z 07007KT CAVOK 12/01 Q1029 NOSIG
Conditions at: EDDV (HANNOVER , DE) observed 2050 UTC 18 April 2019
Temperature: 12.0°C (54°F)
Dewpoint: 1.0°C (34°F) [RH = 47%]
Pressure (altimeter): 30.38 inches Hg (1029.0 mb)
Winds: from the ENE (70 degrees) at 8 MPH (7 knots; 3.6 m/s)
Visibility: 6 or more miles (10+ km)
Ceiling: ceiling and visibility are OK
Clouds: unknown
Weather: no significant weather observed at this time

METAR text: EDDV 182020Z 07006KT CAVOK 13/02 Q1029 NOSIG
Conditions at: EDDV (HANNOVER , DE) observed 2020 UTC 18 April 2019
Temperature: 13.0°C (55°F)
Dewpoint: 2.0°C (36°F) [RH = 47%]
Pressure (altimeter): 30.38 inches Hg (1029.0 mb)
Winds: from the ENE (70 degrees) at 7 MPH (6 knots; 3.1 m/s)
Visibility: 6 or more miles (10+ km)
Ceiling: ceiling and visibility are OK
Clouds: unknown
Weather: no significant weather observed at this time

METAR text: EDDV 181950Z 07006KT CAVOK 13/01 Q1029 NOSIG
Conditions at: EDDV (HANNOVER , DE) observed 1950 UTC 18 April 2019
Temperature: 13.0°C (55°F)
Dewpoint: 1.0°C (34°F) [RH = 44%]
Pressure (altimeter): 30.38 inches Hg (1029.0 mb)
Winds: from the ENE (70 degrees) at 7 MPH (6 knots; 3.1 m/s)
Visibility: 6 or more miles (10+ km)
Ceiling: ceiling and visibility are OK
Clouds: unknown
Weather: no significant weather observed at this time

METAR text: EDDV 181920Z 11004KT CAVOK 16/01 Q1029 NOSIG
Conditions at: EDDV (HANNOVER , DE) observed 1920 UTC 18 April 2019
Temperature: 16.0°C (61°F)
Dewpoint: 1.0°C (34°F) [RH = 36%]
Pressure (altimeter): 30.38 inches Hg (1029.0 mb)
Winds: from the ESE (110 degrees) at 5 MPH (4 knots; 2.1 m/s)
Visibility: 6 or more miles (10+ km)
Ceiling: ceiling and visibility are OK
Clouds: unknown
Weather: no significant weather observed at this time

METAR text: EDDV 181850Z 12004KT 090V150 CAVOK 17/01 Q1029 NOSIG
Conditions at: EDDV (HANNOVER , DE) observed 1850 UTC 18 April 2019
Temperature: 17.0°C (63°F)
Dewpoint: 1.0°C (34°F) [RH = 34%]
Pressure (altimeter): 30.38 inches Hg (1029.0 mb)
Winds: from the ESE (120 degrees) at 5 MPH (4 knots; 2.1 m/s)
Visibility: 6 or more miles (10+ km)
Ceiling: ceiling and visibility are OK
Clouds: unknown
Weather: no significant weather observed at this time

METAR text: EDDV 181820Z 09007KT CAVOK 16/02 Q1028 NOSIG
Conditions at: EDDV (HANNOVER , DE) observed 1820 UTC 18 April 2019
Temperature: 16.0°C (61°F)
Dewpoint: 2.0°C (36°F) [RH = 39%]
Pressure (altimeter): 30.35 inches Hg (1028.0 mb)
Winds: from the E (90 degrees) at 8 MPH (7 knots; 3.6 m/s)
Visibility: 6 or more miles (10+ km)
Ceiling: ceiling and visibility are OK
Clouds: unknown
Weather: no significant weather observed at this time

METAR text: EDDV 181750Z 09008KT CAVOK 17/02 Q1028 NOSIG
Conditions at: EDDV (HANNOVER , DE) observed 1750 UTC 18 April 2019
Temperature: 17.0°C (63°F)
Dewpoint: 2.0°C (36°F) [RH = 36%]
Pressure (altimeter): 30.35 inches Hg (1028.0 mb)
Winds: from the E (90 degrees) at 9 MPH (8 knots; 4.1 m/s)
Visibility: 6 or more miles (10+ km)
Ceiling: ceiling and visibility are OK
Clouds: unknown
Weather: no significant weather observed at this time

METAR text: EDDV 181720Z 10011KT CAVOK 20/00 Q1028 NOSIG
Conditions at: EDDV (HANNOVER , DE) observed 1720 UTC 18 April 2019
Temperature: 20.0°C (68°F)
Dewpoint: 0.0°C (32°F) [RH = 26%]
Pressure (altimeter): 30.35 inches Hg (1028.0 mb)
Winds: from the E (100 degrees) at 13 MPH (11 knots; 5.7 m/s)
Visibility: 6 or more miles (10+ km)
Ceiling: ceiling and visibility are OK
Clouds: unknown
Weather: no significant weather observed at this time

METAR text: EDDV 181650Z 09015KT CAVOK 20/M00 Q1028 BECMG 10010KT
Conditions at: EDDV (HANNOVER , DE) observed 1650 UTC 18 April 2019
Temperature: 20.0°C (68°F)
Dewpoint: 0.0°C (32°F) [RH = 26%]
Pressure (altimeter): 30.35 inches Hg (1028.0 mb)
Winds: from the E (90 degrees) at 17 MPH (15 knots; 7.7 m/s)
Visibility: 6 or more miles (10+ km)
Ceiling: ceiling and visibility are OK
Clouds: unknown
Weather: no significant weather observed at this time

METAR text: EDDV 181620Z 11011KT 080V140 CAVOK 20/01 Q1028 NOSIG
Conditions at: EDDV (HANNOVER , DE) observed 1620 UTC 18 April 2019
Temperature: 20.0°C (68°F)
Dewpoint: 1.0°C (34°F) [RH = 28%]
Pressure (altimeter): 30.35 inches Hg (1028.0 mb)
Winds: from the ESE (110 degrees) at 13 MPH (11 knots; 5.7 m/s)
Visibility: 6 or more miles (10+ km)
Ceiling: ceiling and visibility are OK
Clouds: unknown
Weather: no significant weather observed at this time

METAR text: EDDV 181550Z 10011KT CAVOK 21/01 Q1028 TEMPO 10015G25KT
Conditions at: EDDV (HANNOVER , DE) observed 1550 UTC 18 April 2019
Temperature: 21.0°C (70°F)
Dewpoint: 1.0°C (34°F) [RH = 26%]
Pressure (altimeter): 30.35 inches Hg (1028.0 mb)
Winds: from the E (100 degrees) at 13 MPH (11 knots; 5.7 m/s)
Visibility: 6 or more miles (10+ km)
Ceiling: ceiling and visibility are OK
Clouds: unknown
Weather: no significant weather observed at this time

METAR text: EDDV 181520Z 10012KT 080V150 CAVOK 21/00 Q1028 TEMPO 10015G25KT
Conditions at: EDDV (HANNOVER , DE) observed 1520 UTC 18 April 2019
Temperature: 21.0°C (70°F)
Dewpoint: 0.0°C (32°F) [RH = 25%]
Pressure (altimeter): 30.35 inches Hg (1028.0 mb)
Winds: from the E (100 degrees) at 14 MPH (12 knots; 6.2 m/s)
Visibility: 6 or more miles (10+ km)
Ceiling: ceiling and visibility are OK
Clouds: unknown
Weather: no significant weather observed at this time

METAR text: EDDV 181450Z 09011KT 070V140 CAVOK 21/01 Q1028 TEMPO 10015G25KT
Conditions at: EDDV (HANNOVER , DE) observed 1450 UTC 18 April 2019
Temperature: 21.0°C (70°F)
Dewpoint: 1.0°C (34°F) [RH = 26%]
Pressure (altimeter): 30.35 inches Hg (1028.0 mb)
Winds: from the E (90 degrees) at 13 MPH (11 knots; 5.7 m/s)
Visibility: 6 or more miles (10+ km)
Ceiling: ceiling and visibility are OK
Clouds: unknown
Weather: no significant weather observed at this time

METAR text: EDDV 181420Z 10011KT 070V150 CAVOK 20/01 Q1028 TEMPO 10015G25KT
Conditions at: EDDV (HANNOVER , DE) observed 1420 UTC 18 April 2019
Temperature: 20.0°C (68°F)
Dewpoint: 1.0°C (34°F) [RH = 28%]
Pressure (altimeter): 30.35 inches Hg (1028.0 mb)
Winds: from the E (100 degrees) at 13 MPH (11 knots; 5.7 m/s)
Visibility: 6 or more miles (10+ km)
Ceiling: ceiling and visibility are OK
Clouds: unknown
Weather: no significant weather observed at this time

METAR text: EDDV 181350Z 12012G22KT 060V150 CAVOK 21/01 Q1028 TEMPO 10015G25KT
Conditions at: EDDV (HANNOVER , DE) observed 1350 UTC 18 April 2019
Temperature: 21.0°C (70°F)
Dewpoint: 1.0°C (34°F) [RH = 26%]
Pressure (altimeter): 30.35 inches Hg (1028.0 mb)
Winds: from the ESE (120 degrees) at 14 MPH (12 knots; 6.2 m/s)
gusting to 25 MPH (22 knots; 11.3 m/s)
Visibility: 6 or more miles (10+ km)
Ceiling: ceiling and visibility are OK
Clouds: unknown
Weather: no significant weather observed at this time

METAR text: EDDV 181250Z 10014KT CAVOK 20/01 Q1028 TEMPO 10015G25KT
Conditions at: EDDV (HANNOVER , DE) observed 1250 UTC 18 April 2019
Temperature: 20.0°C (68°F)
Dewpoint: 1.0°C (34°F) [RH = 28%]
Pressure (altimeter): 30.35 inches Hg (1028.0 mb)
Winds: from the E (100 degrees) at 16 MPH (14 knots; 7.2 m/s)
Visibility: 6 or more miles (10+ km)
Ceiling: ceiling and visibility are OK
Clouds: unknown
Weather: no significant weather observed at this time

METAR text: EDDV 181220Z 10014KT 070V140 CAVOK 20/01 Q1028 TEMPO 10015G25KT
Conditions at: EDDV (HANNOVER , DE) observed 1220 UTC 18 April 2019
Temperature: 20.0°C (68°F)
Dewpoint: 1.0°C (34°F) [RH = 28%]
Pressure (altimeter): 30.35 inches Hg (1028.0 mb)
Winds: from the E (100 degrees) at 16 MPH (14 knots; 7.2 m/s)
Visibility: 6 or more miles (10+ km)
Ceiling: ceiling and visibility are OK
Clouds: unknown
Weather: no significant weather observed at this time

METAR text: EDDV 181150Z 11015KT 080V140 CAVOK 19/01 Q1029 TEMPO 10015G25KT
Conditions at: EDDV (HANNOVER , DE) observed 1150 UTC 18 April 2019
Temperature: 19.0°C (66°F)
Dewpoint: 1.0°C (34°F) [RH = 30%]
Pressure (altimeter): 30.38 inches Hg (1029.0 mb)
Winds: from the ESE (110 degrees) at 17 MPH (15 knots; 7.7 m/s)
Visibility: 6 or more miles (10+ km)
Ceiling: ceiling and visibility are OK
Clouds: unknown
Weather: no significant weather observed at this time

METAR text: EDDV 181120Z 09015KT CAVOK 20/02 Q1029 TEMPO 10015G25KT
Conditions at: EDDV (HANNOVER , DE) observed 1120 UTC 18 April 2019
Temperature: 20.0°C (68°F)
Dewpoint: 2.0°C (36°F) [RH = 30%]
Pressure (altimeter): 30.38 inches Hg (1029.0 mb)
Winds: from the E (90 degrees) at 17 MPH (15 knots; 7.7 m/s)
Visibility: 6 or more miles (10+ km)
Ceiling: ceiling and visibility are OK
Clouds: unknown
Weather: no significant weather observed at this time

METAR text: EDDV 181050Z 09014G26KT 060V130 CAVOK 19/01 Q1029 NOSIG
Conditions at: EDDV (HANNOVER , DE) observed 1050 UTC 18 April 2019
Temperature: 19.0°C (66°F)
Dewpoint: 1.0°C (34°F) [RH = 30%]
Pressure (altimeter): 30.38 inches Hg (1029.0 mb)
Winds: from the E (90 degrees) at 16 MPH (14 knots; 7.2 m/s)
gusting to 30 MPH (26 knots; 13.4 m/s)
Visibility: 6 or more miles (10+ km)
Ceiling: ceiling and visibility are OK
Clouds: unknown
Weather: no significant weather observed at this time

METAR text: EDDV 181020Z 08012KT CAVOK 19/03 Q1029 NOSIG
Conditions at: EDDV (HANNOVER , DE) observed 1020 UTC 18 April 2019
Temperature: 19.0°C (66°F)
Dewpoint: 3.0°C (37°F) [RH = 34%]
Pressure (altimeter): 30.38 inches Hg (1029.0 mb)
Winds: from the E (80 degrees) at 14 MPH (12 knots; 6.2 m/s)
Visibility: 6 or more miles (10+ km)
Ceiling: ceiling and visibility are OK
Clouds: unknown
Weather: no significant weather observed at this time

METAR text: EDDV 180950Z 09010KT 040V130 CAVOK 18/03 Q1029 NOSIG
Conditions at: EDDV (HANNOVER , DE) observed 0950 UTC 18 April 2019
Temperature: 18.0°C (64°F)
Dewpoint: 3.0°C (37°F) [RH = 37%]
Pressure (altimeter): 30.38 inches Hg (1029.0 mb)
Winds: from the E (90 degrees) at 12 MPH (10 knots; 5.1 m/s)
Visibility: 6 or more miles (10+ km)
Ceiling: ceiling and visibility are OK
Clouds: unknown
Weather: no significant weather observed at this time

METAR text: EDDV 180920Z 09011KT CAVOK 16/02 Q1029 NOSIG
Conditions at: EDDV (HANNOVER , DE) observed 0920 UTC 18 April 2019
Temperature: 16.0°C (61°F)
Dewpoint: 2.0°C (36°F) [RH = 39%]
Pressure (altimeter): 30.38 inches Hg (1029.0 mb)
Winds: from the E (90 degrees) at 13 MPH (11 knots; 5.7 m/s)
Visibility: 6 or more miles (10+ km)
Ceiling: ceiling and visibility are OK
Clouds: unknown
Weather: no significant weather observed at this time

METAR text: EDDV 180850Z 09010KT CAVOK 16/03 Q1030 NOSIG
Conditions at: EDDV (HANNOVER , DE) observed 0850 UTC 18 April 2019
Temperature: 16.0°C (61°F)
Dewpoint: 3.0°C (37°F) [RH = 42%]
Pressure (altimeter): 30.41 inches Hg (1030.0 mb)
Winds: from the E (90 degrees) at 12 MPH (10 knots; 5.1 m/s)
Visibility: 6 or more miles (10+ km)
Ceiling: ceiling and visibility are OK
Clouds: unknown
Weather: no significant weather observed at this time

METAR text: EDDV 180820Z 09007KT 070V150 CAVOK 14/02 Q1030 NOSIG
Conditions at: EDDV (HANNOVER , DE) observed 0820 UTC 18 April 2019
Temperature: 14.0°C (57°F)
Dewpoint: 2.0°C (36°F) [RH = 44%]
Pressure (altimeter): 30.41 inches Hg (1030.0 mb)
Winds: from the E (90 degrees) at 8 MPH (7 knots; 3.6 m/s)
Visibility: 6 or more miles (10+ km)
Ceiling: ceiling and visibility are OK
Clouds: unknown
Weather: no significant weather observed at this time

METAR text: EDDV 180750Z 09007KT CAVOK 13/03 Q1030 NOSIG
Conditions at: EDDV (HANNOVER , DE) observed 0750 UTC 18 April 2019
Temperature: 13.0°C (55°F)
Dewpoint: 3.0°C (37°F) [RH = 51%]
Pressure (altimeter): 30.41 inches Hg (1030.0 mb)
Winds: from the E (90 degrees) at 8 MPH (7 knots; 3.6 m/s)
Visibility: 6 or more miles (10+ km)
Ceiling: ceiling and visibility are OK
Clouds: unknown
Weather: no significant weather observed at this time

METAR text: EDDV 180720Z 08007KT CAVOK 11/03 Q1030 NOSIG
Conditions at: EDDV (HANNOVER , DE) observed 0720 UTC 18 April 2019
Temperature: 11.0°C (52°F)
Dewpoint: 3.0°C (37°F) [RH = 58%]
Pressure (altimeter): 30.41 inches Hg (1030.0 mb)
Winds: from the E (80 degrees) at 8 MPH (7 knots; 3.6 m/s)
Visibility: 6 or more miles (10+ km)
Ceiling: ceiling and visibility are OK
Clouds: unknown
Weather: no significant weather observed at this time

METAR text: EDDV 180650Z 09008KT CAVOK 10/02 Q1029 NOSIG
Conditions at: EDDV (HANNOVER , DE) observed 0650 UTC 18 April 2019
Temperature: 10.0°C (50°F)
Dewpoint: 2.0°C (36°F) [RH = 57%]
Pressure (altimeter): 30.38 inches Hg (1029.0 mb)
Winds: from the E (90 degrees) at 9 MPH (8 knots; 4.1 m/s)
Visibility: 6 or more miles (10+ km)
Ceiling: ceiling and visibility are OK
Clouds: unknown
Weather: no significant weather observed at this time

METAR text: EDDV 180620Z 08005KT CAVOK 09/02 Q1029 NOSIG
Conditions at: EDDV (HANNOVER , DE) observed 0620 UTC 18 April 2019
Temperature: 9.0°C (48°F)
Dewpoint: 2.0°C (36°F) [RH = 61%]
Pressure (altimeter): 30.38 inches Hg (1029.0 mb)
Winds: from the E (80 degrees) at 6 MPH (5 knots; 2.6 m/s)
Visibility: 6 or more miles (10+ km)
Ceiling: ceiling and visibility are OK
Clouds: unknown
Weather: no significant weather observed at this time

METAR text: EDDV 180550Z 09005KT CAVOK 08/02 Q1029 NOSIG
Conditions at: EDDV (HANNOVER , DE) observed 0550 UTC 18 April 2019
Temperature: 8.0°C (46°F)
Dewpoint: 2.0°C (36°F) [RH = 66%]
Pressure (altimeter): 30.38 inches Hg (1029.0 mb)
Winds: from the E (90 degrees) at 6 MPH (5 knots; 2.6 m/s)
Visibility: 6 or more miles (10+ km)
Ceiling: ceiling and visibility are OK
Clouds: unknown
Weather: no significant weather observed at this time

METAR text: EDDV 180520Z 09006KT CAVOK 06/02 Q1029 NOSIG
Conditions at: EDDV (HANNOVER , DE) observed 0520 UTC 18 April 2019
Temperature: 6.0°C (43°F)
Dewpoint: 2.0°C (36°F) [RH = 75%]
Pressure (altimeter): 30.38 inches Hg (1029.0 mb)
Winds: from the E (90 degrees) at 7 MPH (6 knots; 3.1 m/s)
Visibility: 6 or more miles (10+ km)
Ceiling: ceiling and visibility are OK
Clouds: unknown
Weather: no significant weather observed at this time

METAR text: EDDV 180450Z 08006KT CAVOK 05/01 Q1029 NOSIG
Conditions at: EDDV (HANNOVER , DE) observed 0450 UTC 18 April 2019
Temperature: 5.0°C (41°F)
Dewpoint: 1.0°C (34°F) [RH = 75%]
Pressure (altimeter): 30.38 inches Hg (1029.0 mb)
Winds: from the E (80 degrees) at 7 MPH (6 knots; 3.1 m/s)
Visibility: 6 or more miles (10+ km)
Ceiling: ceiling and visibility are OK
Clouds: unknown
Weather: no significant weather observed at this time

METAR text: EDDV 180420Z 09006KT CAVOK 05/01 Q1028 NOSIG
Conditions at: EDDV (HANNOVER , DE) observed 0420 UTC 18 April 2019
Temperature: 5.0°C (41°F)
Dewpoint: 1.0°C (34°F) [RH = 75%]
Pressure (altimeter): 30.35 inches Hg (1028.0 mb)
Winds: from the E (90 degrees) at 7 MPH (6 knots; 3.1 m/s)
Visibility: 6 or more miles (10+ km)
Ceiling: ceiling and visibility are OK
Clouds: unknown
Weather: no significant weather observed at this time

METAR text: EDDV 180350Z 08007KT CAVOK 06/01 Q1028 NOSIG
Conditions at: EDDV (HANNOVER , DE) observed 0350 UTC 18 April 2019
Temperature: 6.0°C (43°F)
Dewpoint: 1.0°C (34°F) [RH = 70%]
Pressure (altimeter): 30.35 inches Hg (1028.0 mb)
Winds: from the E (80 degrees) at 8 MPH (7 knots; 3.6 m/s)
Visibility: 6 or more miles (10+ km)
Ceiling: ceiling and visibility are OK
Clouds: unknown
Weather: no significant weather observed at this time

METAR text: EDDV 180320Z 07008KT CAVOK 07/02 Q1028
Conditions at: EDDV (HANNOVER , DE) observed 0320 UTC 18 April 2019
Temperature: 7.0°C (45°F)
Dewpoint: 2.0°C (36°F) [RH = 70%]
Pressure (altimeter): 30.35 inches Hg (1028.0 mb)
Winds: from the ENE (70 degrees) at 9 MPH (8 knots; 4.1 m/s)
Visibility: 6 or more miles (10+ km)
Ceiling: ceiling and visibility are OK
Clouds: unknown
Weather: no significant weather observed at this time

METAR text: EDDV 180250Z 07007KT CAVOK 06/01 Q1028
Conditions at: EDDV (HANNOVER , DE) observed 0250 UTC 18 April 2019
Temperature: 6.0°C (43°F)
Dewpoint: 1.0°C (34°F) [RH = 70%]
Pressure (altimeter): 30.35 inches Hg (1028.0 mb)
Winds: from the ENE (70 degrees) at 8 MPH (7 knots; 3.6 m/s)
Visibility: 6 or more miles (10+ km)
Ceiling: ceiling and visibility are OK
Clouds: unknown
Weather: no significant weather observed at this time

METAR text: EDDV 180220Z 07007KT CAVOK 07/02 Q1028
Conditions at: EDDV (HANNOVER , DE) observed 0220 UTC 18 April 2019
Temperature: 7.0°C (45°F)
Dewpoint: 2.0°C (36°F) [RH = 70%]
Pressure (altimeter): 30.35 inches Hg (1028.0 mb)
Winds: from the ENE (70 degrees) at 8 MPH (7 knots; 3.6 m/s)
Visibility: 6 or more miles (10+ km)
Ceiling: ceiling and visibility are OK
Clouds: unknown
Weather: no significant weather observed at this time

METAR text: EDDV 180150Z 07007KT CAVOK 06/02 Q1027
Conditions at: EDDV (HANNOVER , DE) observed 0150 UTC 18 April 2019
Temperature: 6.0°C (43°F)
Dewpoint: 2.0°C (36°F) [RH = 75%]
Pressure (altimeter): 30.32 inches Hg (1027.0 mb)
Winds: from the ENE (70 degrees) at 8 MPH (7 knots; 3.6 m/s)
Visibility: 6 or more miles (10+ km)
Ceiling: ceiling and visibility are OK
Clouds: unknown
Weather: no significant weather observed at this time

METAR text: EDDV 180120Z 07008KT CAVOK 07/02 Q1028
Conditions at: EDDV (HANNOVER , DE) observed 0120 UTC 18 April 2019
Temperature: 7.0°C (45°F)
Dewpoint: 2.0°C (36°F) [RH = 70%]
Pressure (altimeter): 30.35 inches Hg (1028.0 mb)
Winds: from the ENE (70 degrees) at 9 MPH (8 knots; 4.1 m/s)
Visibility: 6 or more miles (10+ km)
Ceiling: ceiling and visibility are OK
Clouds: unknown
Weather: no significant weather observed at this time

METAR text: EDDV 180050Z 08005KT CAVOK 07/02 Q1027
Conditions at: EDDV (HANNOVER , DE) observed 0050 UTC 18 April 2019
Temperature: 7.0°C (45°F)
Dewpoint: 2.0°C (36°F) [RH = 70%]
Pressure (altimeter): 30.32 inches Hg (1027.0 mb)
Winds: from the E (80 degrees) at 6 MPH (5 knots; 2.6 m/s)
Visibility: 6 or more miles (10+ km)
Ceiling: ceiling and visibility are OK
Clouds: unknown
Weather: no significant weather observed at this time

METAR text: EDDV 180020Z 07006KT CAVOK 07/02 Q1028
Conditions at: EDDV (HANNOVER , DE) observed 0020 UTC 18 April 2019
Temperature: 7.0°C (45°F)
Dewpoint: 2.0°C (36°F) [RH = 70%]
Pressure (altimeter): 30.35 inches Hg (1028.0 mb)
Winds: from the ENE (70 degrees) at 7 MPH (6 knots; 3.1 m/s)
Visibility: 6 or more miles (10+ km)
Ceiling: ceiling and visibility are OK
Clouds: unknown
Weather: no significant weather observed at this time

METAR text: EDDV 172350Z 07007KT CAVOK 08/02 Q1028
Conditions at: EDDV (HANNOVER , DE) observed 2350 UTC 17 April 2019
Temperature: 8.0°C (46°F)
Dewpoint: 2.0°C (36°F) [RH = 66%]
Pressure (altimeter): 30.35 inches Hg (1028.0 mb)
Winds: from the ENE (70 degrees) at 8 MPH (7 knots; 3.6 m/s)
Visibility: 6 or more miles (10+ km)
Ceiling: ceiling and visibility are OK
Clouds: unknown
Weather: no significant weather observed at this time

METAR text: EDDV 172320Z 08005KT CAVOK 08/03 Q1027
Conditions at: EDDV (HANNOVER , DE) observed 2320 UTC 17 April 2019
Temperature: 8.0°C (46°F)
Dewpoint: 3.0°C (37°F) [RH = 71%]
Pressure (altimeter): 30.32 inches Hg (1027.0 mb)
Winds: from the E (80 degrees) at 6 MPH (5 knots; 2.6 m/s)
Visibility: 6 or more miles (10+ km)
Ceiling: ceiling and visibility are OK
Clouds: unknown
Weather: no significant weather observed at this time

METAR text: EDDV 172250Z 08005KT CAVOK 09/03 Q1027
Conditions at: EDDV (HANNOVER , DE) observed 2250 UTC 17 April 2019
Temperature: 9.0°C (48°F)
Dewpoint: 3.0°C (37°F) [RH = 66%]
Pressure (altimeter): 30.32 inches Hg (1027.0 mb)
Winds: from the E (80 degrees) at 6 MPH (5 knots; 2.6 m/s)
Visibility: 6 or more miles (10+ km)
Ceiling: ceiling and visibility are OK
Clouds: unknown
Weather: no significant weather observed at this time

METAR text: EDDV 172220Z 08006KT CAVOK 10/03 Q1027
Conditions at: EDDV (HANNOVER , DE) observed 2220 UTC 17 April 2019
Temperature: 10.0°C (50°F)
Dewpoint: 3.0°C (37°F) [RH = 62%]
Pressure (altimeter): 30.32 inches Hg (1027.0 mb)
Winds: from the E (80 degrees) at 7 MPH (6 knots; 3.1 m/s)
Visibility: 6 or more miles (10+ km)
Ceiling: ceiling and visibility are OK
Clouds: unknown
Weather: no significant weather observed at this time

METAR text: EDDV 172150Z 09005KT CAVOK 09/03 Q1027
Conditions at: EDDV (HANNOVER , DE) observed 2150 UTC 17 April 2019
Temperature: 9.0°C (48°F)
Dewpoint: 3.0°C (37°F) [RH = 66%]
Pressure (altimeter): 30.32 inches Hg (1027.0 mb)
Winds: from the E (90 degrees) at 6 MPH (5 knots; 2.6 m/s)
Visibility: 6 or more miles (10+ km)
Ceiling: ceiling and visibility are OK
Clouds: unknown
Weather: no significant weather observed at this time

Forecast for: EDDV (HANNOVER , DE)
Text: TAF EDDV 190500Z 1906/2006 08005KT CAVOK
Forecast period: 0600 to 0700 UTC 19 April 2019
Forecast type: FROM: standard forecast or significant change
Winds: from the E (80 degrees) at 6 MPH (5 knots; 2.6 m/s)
Visibility: 6 or more miles 10+ km)
Ceiling: unknown
Clouds: missing
Weather: NSW  (no significant weather)
Text: BECMG 1907/1909 09010KT
Forecast period: 0700 to 1700 UTC 19 April 2019
Forecast type: BECOMING: Conditions expected to become as follows by 0900 UTC 19 April 2019
Winds: from the E (90 degrees) at 12 MPH (10 knots; 5.1 m/s)
Visibility: 6 or more miles 10+ km)
Ceiling: unknown
Clouds: missing
Weather: NSW  (no significant weather)
Text: BECMG 1917/1919 08005KT
Forecast period: 1700 UTC 19 April 2019 to 0600 UTC 20 April 2019
Forecast type: BECOMING: Conditions expected to become as follows by 1900 UTC 19 April 2019
Winds: from the E (80 degrees) at 6 MPH (5 knots; 2.6 m/s)
Visibility: 6 or more miles 10+ km)
Ceiling: unknown
Clouds: missing
Weather: NSW  (no significant weather)